Etusivu
METAR-TAF:

METAR-TAF

Lentoasemat :

Window Rock Airport

Window Rock, Arizona, Yhdysvallat

Leveyspiiri: 35-39N, Pituuspiiri: 109-04W, korkeus merenpinnasta: 2055 m

Tämänhetkinen sää

Tämä raportti tehtiin 40 minuuttia sitten, kello 17.53 UTC
Tuuli 3 kn eri suunnista
Lämpötila 9°C
Kosteus 31%
Ilmanpaine 1028 hPa
Näkyvyys: 16.1 km
selkeää

METAR: KRQE 121753Z AUTO VRB03KT 10SM CLR 09/M07 A3037 RMK AO2 SLP253 T00891072 10089 21117 58011

Aika: 11:33 (18:33 UTC)


TAF: puuttuu

Säähavainnot ja -ennusteet yli 4000 lentoasemalta (METAR- ja TAF-raportit).

Käytössä olevat sääasemat on merkitty karttaan keltaisilla ja punaisilla pisteillä.

Aseta hiiri pisteen päälle nähdäksesi sääaseman nimen.

Klikkaa sitten nähdäksesi säähavainnot ja -ennusteet.

Kartan vaihtaminen: klikkaa mustalla rastilla varustettuja vihreitä pisteitä, niin voit zoomata sisään; viivalla varustettua vihreää pistettä, niin voit zoomata ulos tai vihreitä nuolia, niin pääset viereisille kartoille.


METAR-TAF: